createdAt,value
2023-03-02T00:03:18.326Z,2.24
2023-03-02T00:08:20.271Z,2.22
2023-03-02T00:13:22.543Z,2.23
2023-03-02T00:18:24.685Z,2.23
2023-03-02T00:23:26.530Z,2.28
2023-03-02T00:28:29.677Z,2.26
2023-03-02T00:33:32.877Z,2.27
2023-03-02T00:38:34.651Z,2.28
2023-03-02T00:43:36.457Z,2.07
2023-03-02T00:48:38.442Z,1.75
2023-03-02T00:53:41.327Z,1.56
2023-03-02T00:58:43.132Z,1.42
2023-03-02T01:03:45.361Z,1.42
2023-03-02T01:08:48.361Z,1.43
2023-03-02T01:13:50.637Z,1.32
2023-03-02T01:18:52.392Z,1.34
2023-03-02T01:23:54.245Z,1.33
2023-03-02T01:28:56.473Z,1.33
2023-03-02T01:33:58.426Z,1.45
2023-03-02T01:39:00.832Z,1.34
2023-03-02T01:44:02.591Z,1.28
2023-03-02T01:49:11.596Z,1.25
2023-03-02T01:54:27.698Z,1.20
2023-03-02T01:59:35.873Z,1.18
2023-03-02T02:04:42.190Z,1.15
2023-03-02T02:09:48.083Z,1.14
2023-03-02T02:14:50.500Z,1.14
2023-03-02T02:20:24.100Z,1.15
2023-03-02T02:25:55.600Z,1.22
2023-03-02T02:31:22.485Z,1.20
2023-03-02T02:36:33.689Z,1.23
2023-03-02T02:41:41.111Z,1.24
2023-03-02T02:46:44.849Z,1.04
2023-03-02T02:51:46.653Z,0.90
2023-03-02T02:56:50.685Z,0.69
2023-03-02T03:01:53.003Z,0.62
2023-03-02T03:07:01.251Z,0.60
2023-03-02T03:12:21.225Z,0.69
2023-03-02T03:17:23.097Z,0.79
2023-03-02T03:22:30.469Z,0.86
2023-03-02T03:27:32.657Z,0.81
2023-03-02T03:32:36.104Z,0.74
2023-03-02T03:37:42.098Z,0.75
2023-03-02T03:42:44.875Z,0.65
2023-03-02T03:47:47.472Z,0.61
2023-03-02T03:52:49.585Z,0.60
2023-03-02T03:57:56.779Z,0.60
2023-03-02T04:02:59.343Z,0.67
2023-03-02T04:08:03.484Z,0.56
2023-03-02T04:13:06.947Z,0.51
2023-03-02T04:18:09.823Z,0.47
2023-03-02T04:23:12.842Z,0.38
2023-03-02T04:28:17.655Z,0.31
2023-03-02T04:33:20.545Z,0.31
2023-03-02T04:38:23.253Z,0.25
2023-03-02T04:43:26.142Z,0.06
2023-03-02T04:48:28.046Z,-0.09
2023-03-02T04:53:29.824Z,-0.17
2023-03-02T04:58:31.608Z,-0.20
2023-03-02T05:03:33.364Z,-0.08
2023-03-02T05:08:35.174Z,0.02
2023-03-02T05:13:36.918Z,0.11
2023-03-02T05:18:38.677Z,0.06
2023-03-02T05:23:41.644Z,0.14
2023-03-02T05:28:44.048Z,0.20
2023-03-02T05:33:46.254Z,0.22
2023-03-02T05:38:48.072Z,0.20
2023-03-02T05:43:50.104Z,0.18
2023-03-02T05:48:51.864Z,0.23
2023-03-02T05:53:53.645Z,0.23
2023-03-02T05:58:55.452Z,0.24
2023-03-02T06:03:57.229Z,0.21
2023-03-02T06:08:59.024Z,0.27
2023-03-02T06:14:00.809Z,0.34
2023-03-02T06:19:03.144Z,0.45
2023-03-02T06:24:05.148Z,0.59
2023-03-02T06:29:07.758Z,0.79
2023-03-02T06:34:09.565Z,1.01
2023-03-02T06:39:15.839Z,0.93
2023-03-02T06:44:18.001Z,1.36
2023-03-02T06:49:19.762Z,1.71
2023-03-02T06:54:23.793Z,2.01
2023-03-02T06:59:26.034Z,2.33
2023-03-02T07:04:30.588Z,2.59
2023-03-02T07:09:35.500Z,2.87
2023-03-02T07:14:37.337Z,3.07
2023-03-02T07:19:40.881Z,2.87
2023-03-02T07:24:44.907Z,2.99
2023-03-02T07:29:46.778Z,3.21
2023-03-02T07:34:48.542Z,3.46
2023-03-02T07:39:50.437Z,3.86
2023-03-02T07:44:54.430Z,4.20
2023-03-02T07:49:56.454Z,4.42
2023-03-02T07:54:58.225Z,4.63
2023-03-02T08:00:00.090Z,4.98
2023-03-02T08:05:01.872Z,5.31
2023-03-02T08:10:04.801Z,5.56
2023-03-02T08:15:07.096Z,5.74
2023-03-02T08:20:09.787Z,5.94
2023-03-02T08:25:19.534Z,5.99
2023-03-02T08:30:21.346Z,6.09
2023-03-02T08:35:23.162Z,6.30
2023-03-02T08:40:24.938Z,6.49
2023-03-02T08:45:26.970Z,6.77
2023-03-02T08:50:28.850Z,6.93
2023-03-02T08:55:30.639Z,6.89
2023-03-02T09:06:07.909Z,7.14
2023-03-02T09:11:09.774Z,7.21
2023-03-02T09:16:12.549Z,7.46
2023-03-02T09:21:14.580Z,7.71
2023-03-02T09:26:16.378Z,7.80
2023-03-02T09:31:18.148Z,7.94
2023-03-02T09:36:22.649Z,7.97
2023-03-02T09:41:42.606Z,8.07
2023-03-02T09:46:49.776Z,8.21
2023-03-02T09:52:06.519Z,8.23
2023-03-02T09:57:29.591Z,8.21
2023-03-02T10:02:49.475Z,8.53
2023-03-02T10:07:51.750Z,8.60
2023-03-02T10:13:17.740Z,8.79
2023-03-02T10:18:38.095Z,9.02
2023-03-02T10:23:51.458Z,9.22
2023-03-02T10:29:05.752Z,9.45
2023-03-02T10:34:10.897Z,9.59
2023-03-02T10:39:15.654Z,9.80
2023-03-02T10:44:27.683Z,9.98
2023-03-02T10:49:31.433Z,10.09
2023-03-02T10:54:34.816Z,10.10
2023-03-02T10:59:46.273Z,10.18
2023-03-02T11:04:48.132Z,10.19
2023-03-02T11:10:02.046Z,10.36
2023-03-02T11:15:45.144Z,10.55
2023-03-02T11:20:51.790Z,10.68
2023-03-02T11:26:01.921Z,10.86
2023-03-02T11:31:10.391Z,11.07
2023-03-02T11:36:18.935Z,11.20
2023-03-02T11:41:30.127Z,11.49
2023-03-02T11:46:33.634Z,11.65
2023-03-02T11:51:44.482Z,11.87
2023-03-02T11:56:49.107Z,11.99
2023-03-02T12:01:54.708Z,11.93
2023-03-02T12:06:56.873Z,12.04
2023-03-02T12:12:26.667Z,12.10
2023-03-02T12:17:30.062Z,12.05
2023-03-02T12:22:32.315Z,11.98
2023-03-02T12:27:59.398Z,11.92
2023-03-02T12:33:14.484Z,12.15
2023-03-02T12:38:31.405Z,12.33
2023-03-02T12:48:56.953Z,12.84
2023-03-02T12:54:18.079Z,13.00
2023-03-02T12:59:25.686Z,13.13
2023-03-02T13:04:27.539Z,13.07
2023-03-02T13:09:29.529Z,13.01
2023-03-02T13:14:31.339Z,13.11
2023-03-02T13:19:33.887Z,13.18
2023-03-02T13:24:45.661Z,13.21
2023-03-02T13:29:48.254Z,13.13
2023-03-02T13:34:56.079Z,13.12
2023-03-02T13:40:00.399Z,13.16
2023-03-02T13:45:20.783Z,13.25
2023-03-02T13:50:28.696Z,13.20
2023-03-02T13:55:30.507Z,13.08
2023-03-02T14:00:35.112Z,13.08
2023-03-02T14:05:36.954Z,14.67
2023-03-02T14:10:39.161Z,17.25
2023-03-02T14:15:46.449Z,19.57
2023-03-02T14:20:48.313Z,21.44
2023-03-02T14:25:51.272Z,22.81
2023-03-02T14:30:55.587Z,23.55
2023-03-02T14:35:58.735Z,23.43
2023-03-02T14:41:00.643Z,21.29
2023-03-02T14:46:02.485Z,18.57
2023-03-02T14:51:04.789Z,16.62
2023-03-02T14:56:08.091Z,15.22
2023-03-02T15:01:35.379Z,14.24
2023-03-02T15:06:42.552Z,13.47
2023-03-02T15:11:44.521Z,12.88
2023-03-02T15:16:46.321Z,12.50
2023-03-02T15:21:48.327Z,12.23
2023-03-02T15:26:57.324Z,12.01
2023-03-02T15:31:59.210Z,11.82
2023-03-02T15:37:01.027Z,11.69
2023-03-02T15:42:02.865Z,11.57
2023-03-02T15:47:08.336Z,11.50
2023-03-02T15:52:11.573Z,11.41
2023-03-02T15:57:13.581Z,11.34
2023-03-02T16:02:15.488Z,11.27
2023-03-02T16:07:17.276Z,11.20
2023-03-02T16:12:23.312Z,11.09
2023-03-02T16:17:25.070Z,10.98
2023-03-02T16:22:26.816Z,10.93
2023-03-02T16:27:29.443Z,10.84
2023-03-02T16:32:33.226Z,10.58
2023-03-02T16:37:35.114Z,10.29
2023-03-02T16:42:36.937Z,10.00
2023-03-02T16:47:38.729Z,9.63
2023-03-02T16:52:41.069Z,9.33
2023-03-02T16:57:43.518Z,8.98
2023-03-02T17:02:45.628Z,8.66
2023-03-02T17:08:05.260Z,8.37
2023-03-02T17:13:07.769Z,8.12
2023-03-02T17:18:10.042Z,7.97
2023-03-02T17:23:12.976Z,7.76
2023-03-02T17:28:15.316Z,7.59
2023-03-02T17:38:54.032Z,7.24
2023-03-02T17:43:55.816Z,7.09
2023-03-02T17:48:59.362Z,6.93
2023-03-02T17:54:01.177Z,6.80
2023-03-02T17:59:05.197Z,6.68
2023-03-02T18:04:07.123Z,6.65
2023-03-02T18:09:08.993Z,6.59
2023-03-02T18:14:20.374Z,6.54
2023-03-02T18:19:22.160Z,6.52
2023-03-02T18:24:34.532Z,6.44
2023-03-02T18:29:36.278Z,6.36
2023-03-02T18:34:38.205Z,6.27
2023-03-02T18:39:40.070Z,6.28
2023-03-02T18:44:41.885Z,6.34
2023-03-02T18:49:44.686Z,6.48
2023-03-02T18:54:47.398Z,6.61
2023-03-02T18:59:49.159Z,6.75
2023-03-02T19:04:50.990Z,6.86
2023-03-02T19:09:52.787Z,6.89
2023-03-02T19:14:55.722Z,6.80
2023-03-02T19:19:58.279Z,6.83
2023-03-02T19:25:00.161Z,6.89
2023-03-02T19:30:02.107Z,6.56
2023-03-02T19:35:04.084Z,6.71
2023-03-02T19:40:06.953Z,6.80
2023-03-02T19:45:12.556Z,6.76
2023-03-02T19:50:16.384Z,6.73
2023-03-02T19:55:20.290Z,6.66
2023-03-02T20:00:23.218Z,6.60
2023-03-02T20:05:27.418Z,6.48
2023-03-02T20:10:36.959Z,6.41
2023-03-02T20:15:41.370Z,6.27
2023-03-02T20:20:45.284Z,6.13
2023-03-02T20:25:48.448Z,5.99
2023-03-02T20:30:57.192Z,5.94
2023-03-02T20:36:00.986Z,5.76
2023-03-02T20:41:04.160Z,5.60
2023-03-02T20:46:07.491Z,4.99
2023-03-02T20:51:09.380Z,5.23
2023-03-02T20:56:12.754Z,4.61
2023-03-02T21:01:16.954Z,4.60
2023-03-02T21:06:19.019Z,4.61
2023-03-02T21:11:21.640Z,4.52
2023-03-02T21:16:27.006Z,4.42
2023-03-02T21:21:40.670Z,4.46
2023-03-02T21:26:44.466Z,4.44
2023-03-02T21:31:46.276Z,4.30
2023-03-02T21:36:50.862Z,4.34
2023-03-02T21:41:53.388Z,4.12
2023-03-02T21:46:55.226Z,3.42
2023-03-02T21:51:57.056Z,3.70
2023-03-02T21:56:58.896Z,3.36
2023-03-02T22:02:01.195Z,3.44
2023-03-02T22:07:03.037Z,3.70
2023-03-02T22:12:23.821Z,3.57
2023-03-02T22:17:25.807Z,3.37
2023-03-02T22:22:31.838Z,3.27
2023-03-02T22:27:34.766Z,3.29
2023-03-02T22:32:38.543Z,3.27
2023-03-02T22:37:40.375Z,3.20
2023-03-02T22:42:42.261Z,3.31
2023-03-02T22:47:48.141Z,3.22
2023-03-02T22:52:50.894Z,2.84
2023-03-02T22:57:52.734Z,2.70
2023-03-02T23:02:55.721Z,2.73
2023-03-02T23:08:23.696Z,2.68
2023-03-02T23:13:36.395Z,2.54
2023-03-02T23:18:38.739Z,2.60
2023-03-02T23:23:40.509Z,2.71
2023-03-02T23:28:42.510Z,2.62
2023-03-02T23:33:44.542Z,2.55
2023-03-02T23:38:48.217Z,2.53
2023-03-02T23:43:50.099Z,2.54
2023-03-02T23:48:52.785Z,2.50
2023-03-02T23:53:54.892Z,2.58
2023-03-02T23:58:57.498Z,2.65
